createdAt,value
2022-09-01T00:01:43.159Z,98442.00
2022-09-01T00:04:13.371Z,98425.53
2022-09-01T00:06:40.866Z,98444.13
2022-09-01T00:09:11.363Z,98436.91
2022-09-01T00:11:40.254Z,98436.47
2022-09-01T00:14:10.708Z,98439.28
2022-09-01T00:16:56.881Z,98439.97
2022-09-01T00:19:24.395Z,98436.34
2022-09-01T00:21:51.381Z,98437.63
2022-09-01T00:24:19.154Z,98452.88
2022-09-01T00:26:46.093Z,98440.22
2022-09-01T00:29:13.183Z,98440.78
2022-09-01T00:31:40.594Z,98440.47
2022-09-01T00:34:07.638Z,98436.50
2022-09-01T00:36:35.272Z,98443.09
2022-09-01T00:39:02.738Z,98439.94
2022-09-01T00:41:31.393Z,98438.88
2022-09-01T00:44:01.818Z,98433.81
2022-09-01T00:46:36.502Z,98436.69
2022-09-01T00:49:17.129Z,98427.66
2022-09-01T00:51:48.077Z,98430.72
2022-09-01T00:54:21.841Z,98425.88
2022-09-01T00:56:54.821Z,98429.03
2022-09-01T00:59:27.013Z,98428.84
2022-09-01T01:01:55.138Z,98425.69
2022-09-01T01:04:22.390Z,98423.78
2022-09-01T01:07:01.584Z,98417.91
2022-09-01T01:09:33.134Z,98426.56
2022-09-01T01:12:03.142Z,98418.66
2022-09-01T01:14:31.865Z,98423.91
2022-09-01T01:17:00.135Z,98418.75
2022-09-01T01:20:13.167Z,98411.00
2022-09-01T01:23:16.410Z,98418.00
2022-09-01T01:25:50.692Z,98420.25
2022-09-01T01:28:22.659Z,98416.22
2022-09-01T01:30:55.344Z,98408.75
2022-09-01T01:33:25.093Z,98413.50
2022-09-01T01:40:15.970Z,98412.47
2022-09-01T01:42:48.660Z,98399.34
2022-09-01T01:45:17.739Z,98418.44
2022-09-01T01:47:53.084Z,98406.34
2022-09-01T01:50:27.467Z,98409.59
2022-09-01T01:52:58.095Z,98420.31
2022-09-01T01:55:28.990Z,98417.31
2022-09-01T01:57:59.149Z,98420.09
2022-09-01T02:00:30.411Z,98418.81
2022-09-01T02:02:58.667Z,98426.03
2022-09-01T02:05:28.968Z,98425.09
2022-09-01T02:07:59.879Z,98428.03
2022-09-01T02:10:33.560Z,98419.63
2022-09-01T02:13:07.227Z,98410.69
2022-09-01T02:15:44.366Z,98416.19
2022-09-01T02:18:24.627Z,98416.75
2022-09-01T02:20:53.006Z,98415.13
2022-09-01T02:23:24.343Z,98410.69
2022-09-01T02:28:54.759Z,98415.72
2022-09-01T02:31:27.798Z,98416.41
2022-09-01T02:33:54.953Z,98415.25
2022-09-01T02:36:22.696Z,98409.44
2022-09-01T02:38:53.647Z,98410.97
2022-09-01T02:41:24.988Z,98403.03
2022-09-01T02:43:51.936Z,98418.16
2022-09-01T02:46:20.464Z,98412.34
2022-09-01T02:48:51.508Z,98417.59
2022-09-01T02:51:22.394Z,98413.75
2022-09-01T02:53:52.901Z,98408.41
2022-09-01T02:56:25.329Z,98414.53
2022-09-01T02:58:53.938Z,98413.63
2022-09-01T03:01:30.181Z,98419.22
2022-09-01T03:04:01.034Z,98405.13
2022-09-01T03:06:28.117Z,98418.50
2022-09-01T03:08:59.554Z,98411.31
2022-09-01T03:11:29.472Z,98418.75
2022-09-01T03:13:56.190Z,98412.56
2022-09-01T03:16:22.815Z,98407.81
2022-09-01T03:18:50.636Z,98402.47
2022-09-01T03:21:18.790Z,98400.47
2022-09-01T03:23:46.851Z,98404.19
2022-09-01T03:26:14.733Z,98405.59
2022-09-01T03:28:41.753Z,98413.72
2022-09-01T03:31:08.978Z,98409.44
2022-09-01T03:33:36.757Z,98411.16
2022-09-01T03:36:14.920Z,98411.88
2022-09-01T03:38:44.147Z,98406.13
2022-09-01T03:41:13.141Z,98417.53
2022-09-01T03:43:47.020Z,98420.53
2022-09-01T03:46:21.805Z,98426.00
2022-09-01T03:48:55.169Z,98422.78
2022-09-01T03:51:23.533Z,98419.09
2022-09-01T03:53:54.770Z,98419.91
2022-09-01T03:56:26.299Z,98422.94
2022-09-01T03:58:56.129Z,98421.19
2022-09-01T04:01:24.351Z,98416.31
2022-09-01T04:03:52.103Z,98410.69
2022-09-01T04:06:24.225Z,98416.59
2022-09-01T04:08:56.424Z,98421.53
2022-09-01T04:11:24.356Z,98429.69
2022-09-01T04:13:52.431Z,98416.66
2022-09-01T04:16:46.763Z,98423.03
2022-09-01T04:19:19.979Z,98413.09
2022-09-01T04:21:50.434Z,98410.78
2022-09-01T04:24:18.995Z,98405.00
2022-09-01T04:26:48.753Z,98413.50
2022-09-01T04:29:19.270Z,98396.94
2022-09-01T04:31:49.120Z,98412.75
2022-09-01T04:34:16.218Z,98417.66
2022-09-01T04:36:44.773Z,98408.25
2022-09-01T04:39:13.248Z,98416.13
2022-09-01T04:41:45.939Z,98387.53
2022-09-01T04:44:16.733Z,98335.84
2022-09-01T04:46:46.304Z,98408.59
2022-09-01T04:49:19.646Z,98409.06
2022-09-01T04:51:53.630Z,98406.38
2022-09-01T04:54:22.973Z,98406.84
2022-09-01T04:56:52.543Z,98404.22
2022-09-01T04:59:22.234Z,98403.06
2022-09-01T05:01:57.437Z,98401.88
2022-09-01T05:04:27.689Z,98401.38
2022-09-01T05:06:59.744Z,98406.34
2022-09-01T05:09:35.615Z,98385.38
2022-09-01T05:12:15.840Z,98408.16
2022-09-01T05:14:48.322Z,98410.34
2022-09-01T05:17:18.623Z,98403.19
2022-09-01T05:19:48.630Z,98410.72
2022-09-01T05:22:18.640Z,98408.41
2022-09-01T05:24:55.400Z,98409.50
2022-09-01T05:27:22.851Z,98406.03
2022-09-01T05:29:49.720Z,98404.19
2022-09-01T05:32:16.422Z,98402.91
2022-09-01T05:34:45.075Z,98407.41
2022-09-01T05:37:14.483Z,98416.00
2022-09-01T05:39:41.179Z,98413.44
2022-09-01T05:42:08.395Z,98414.28
2022-09-01T05:44:44.114Z,98395.13
2022-09-01T05:47:20.606Z,98409.72
2022-09-01T05:49:50.316Z,98415.44
2022-09-01T05:52:17.478Z,98412.25
2022-09-01T05:54:47.944Z,98418.31
2022-09-01T05:57:33.874Z,98411.88
2022-09-01T06:00:03.544Z,98393.69
2022-09-01T06:02:43.393Z,98367.47
2022-09-01T06:05:15.845Z,98405.81
2022-09-01T06:07:42.904Z,98403.66
2022-09-01T06:10:10.758Z,98409.28
2022-09-01T06:12:37.698Z,98407.84
2022-09-01T06:15:15.530Z,98402.56
2022-09-01T06:17:44.667Z,98410.81
2022-09-01T06:20:11.226Z,98404.44
2022-09-01T06:22:41.109Z,98402.06
2022-09-01T06:25:09.442Z,98402.69
2022-09-01T06:27:44.947Z,98407.59
2022-09-01T06:30:23.049Z,98403.88
2022-09-01T06:33:05.977Z,98406.09
2022-09-01T06:35:33.895Z,98410.41
2022-09-01T06:38:01.860Z,98409.34
2022-09-01T06:40:39.539Z,98410.94
2022-09-01T06:43:08.040Z,98413.03
2022-09-01T06:45:49.625Z,98415.66
2022-09-01T06:48:17.802Z,98408.59
2022-09-01T06:53:35.228Z,98419.47
2022-09-01T06:56:04.745Z,98425.88
2022-09-01T06:58:33.209Z,98422.13
2022-09-01T07:01:00.079Z,98421.16
2022-09-01T07:03:26.946Z,98421.97
2022-09-01T07:09:38.503Z,98422.28
2022-09-01T07:12:25.707Z,98430.34
2022-09-01T07:17:42.572Z,98415.25
2022-09-01T07:20:26.797Z,98430.94
2022-09-01T07:26:01.315Z,98442.81
2022-09-01T07:28:41.849Z,98439.06
2022-09-01T07:39:49.949Z,98444.44
2022-09-01T07:45:58.670Z,98448.19
2022-09-01T07:51:36.054Z,98453.63
2022-09-01T07:54:03.728Z,98455.28
2022-09-01T07:56:30.380Z,98447.16
2022-09-01T07:58:58.570Z,98452.28
2022-09-01T08:01:27.526Z,98442.38
2022-09-01T08:03:58.051Z,98454.66
2022-09-01T08:06:27.976Z,98433.88
2022-09-01T08:08:57.663Z,98455.03
2022-09-01T08:11:51.502Z,98454.41
2022-09-01T08:14:18.272Z,98460.47
2022-09-01T08:16:52.716Z,98443.66
2022-09-01T08:19:19.991Z,98457.22
2022-09-01T08:22:04.373Z,98457.22
2022-09-01T08:24:49.703Z,98453.34
2022-09-01T08:27:16.218Z,98449.22
2022-09-01T08:29:43.241Z,98454.88
2022-09-01T08:32:11.985Z,98450.47
2022-09-01T08:34:38.827Z,98451.84
2022-09-01T08:37:06.642Z,98449.63
2022-09-01T08:39:34.084Z,98454.63
2022-09-01T08:42:33.125Z,98453.34
2022-09-01T08:45:02.758Z,98462.81
2022-09-01T08:47:43.631Z,98460.41
2022-09-01T08:50:20.793Z,98461.72
2022-09-01T08:53:09.626Z,98465.78
2022-09-01T08:55:44.743Z,98460.09
2022-09-01T08:58:16.703Z,98470.38
2022-09-01T09:01:27.573Z,98458.75
2022-09-01T09:04:12.247Z,98463.38
2022-09-01T09:06:53.483Z,98458.19
2022-09-01T09:09:32.379Z,98463.25
2022-09-01T09:12:52.688Z,98465.94
2022-09-01T09:15:33.664Z,98456.44
2022-09-01T09:18:20.283Z,98477.44
2022-09-01T09:21:19.893Z,98474.97
2022-09-01T09:23:50.874Z,98470.91
2022-09-01T09:26:22.206Z,98466.59
2022-09-01T09:28:50.031Z,98464.97
2022-09-01T09:31:28.867Z,98470.34
2022-09-01T09:33:56.281Z,98466.59
2022-09-01T09:36:30.718Z,98464.97
2022-09-01T09:39:17.144Z,98464.97
2022-09-01T09:42:01.478Z,98460.91
2022-09-01T09:44:31.835Z,98464.97
2022-09-01T09:46:58.425Z,98463.63
2022-09-01T09:49:37.350Z,98467.16
2022-09-01T09:52:08.638Z,98460.06
2022-09-01T09:54:37.192Z,98445.31
2022-09-01T09:57:16.196Z,98442.03
2022-09-01T09:59:58.753Z,98448.69
2022-09-01T10:02:38.849Z,98447.00
2022-09-01T10:05:33.614Z,98443.78
2022-09-01T10:08:00.075Z,98449.19
2022-09-01T10:10:57.512Z,98440.00
2022-09-01T10:13:29.470Z,98443.28
2022-09-01T10:16:19.292Z,98441.44
2022-09-01T10:18:51.357Z,98440.88
2022-09-01T10:21:27.123Z,98432.81
2022-09-01T10:23:54.704Z,98435.25
2022-09-01T10:26:31.666Z,98435.47
2022-09-01T10:29:06.607Z,98436.31
2022-09-01T10:31:34.683Z,98442.50
2022-09-01T10:34:05.659Z,98427.03
2022-09-01T10:36:36.704Z,98432.56
2022-09-01T10:39:08.768Z,98422.28
2022-09-01T10:41:59.720Z,98424.72
2022-09-01T10:44:38.910Z,98419.63
2022-09-01T10:47:24.198Z,98415.22
2022-09-01T10:49:50.656Z,98420.94
2022-09-01T10:52:43.374Z,98411.13
2022-09-01T10:55:25.404Z,98416.97
2022-09-01T11:01:15.611Z,98413.59
2022-09-01T11:03:56.751Z,98411.66
2022-09-01T11:06:42.216Z,98415.91
2022-09-01T11:09:21.258Z,98413.28
2022-09-01T11:12:15.139Z,98417.47
2022-09-01T11:14:54.217Z,98409.06
2022-09-01T11:17:25.764Z,98403.19
2022-09-01T11:19:59.984Z,98402.28
2022-09-01T11:22:34.735Z,98407.44
2022-09-01T11:25:47.156Z,98411.06
2022-09-01T11:28:18.595Z,98403.63
2022-09-01T11:31:00.425Z,98394.47
2022-09-01T11:33:33.970Z,98400.22
2022-09-01T11:36:29.406Z,98383.13
2022-09-01T11:39:04.772Z,98385.81
2022-09-01T11:41:58.589Z,98383.81
2022-09-01T11:44:33.914Z,98383.38
2022-09-01T11:47:10.722Z,98380.38
2022-09-01T11:49:48.187Z,98378.47
2022-09-01T11:52:19.430Z,98380.06
2022-09-01T11:54:50.058Z,98382.88
2022-09-01T11:57:21.734Z,98384.63
2022-09-01T11:59:48.655Z,98378.91
2022-09-01T12:02:28.080Z,98379.63
2022-09-01T12:04:56.213Z,98370.63
2022-09-01T12:07:55.030Z,98366.50
2022-09-01T12:10:33.574Z,98372.91
2022-09-01T12:13:13.039Z,98374.13
2022-09-01T12:16:07.106Z,98362.88
2022-09-01T12:18:35.563Z,98364.81
2022-09-01T12:21:04.632Z,98368.84
2022-09-01T12:23:34.345Z,98362.13
2022-09-01T12:26:04.206Z,98356.19
2022-09-01T12:28:33.037Z,98357.16
2022-09-01T12:31:04.132Z,98357.22
2022-09-01T12:33:34.889Z,98356.78
2022-09-01T12:36:13.667Z,98363.75
2022-09-01T12:38:40.259Z,98358.56
2022-09-01T12:41:40.772Z,98345.91
2022-09-01T12:44:31.741Z,98344.47
2022-09-01T12:47:06.717Z,98343.56
2022-09-01T12:49:50.185Z,98356.69
2022-09-01T12:52:19.892Z,98342.84
2022-09-01T12:54:51.605Z,98339.84
2022-09-01T12:57:32.002Z,98340.25
2022-09-01T13:00:10.732Z,98343.28
2022-09-01T13:02:40.733Z,98342.31
2022-09-01T13:05:31.856Z,98355.41
2022-09-01T13:08:16.393Z,98348.63
2022-09-01T13:11:04.797Z,98345.81
2022-09-01T13:13:31.532Z,98337.53
2022-09-01T13:16:03.386Z,98334.47
2022-09-01T13:18:30.407Z,98332.22
2022-09-01T13:20:58.121Z,98314.28
2022-09-01T13:23:24.682Z,98325.97
2022-09-01T13:25:51.397Z,98325.31
2022-09-01T13:28:19.229Z,98320.53
2022-09-01T13:31:28.434Z,98315.19
2022-09-01T13:39:12.967Z,98310.69
2022-09-01T13:41:39.498Z,98308.22
2022-09-01T13:44:06.151Z,98308.50
2022-09-01T13:46:32.578Z,98304.28
2022-09-01T13:49:02.821Z,98307.16
2022-09-01T13:51:29.950Z,98304.34
2022-09-01T13:53:56.482Z,98302.97
2022-09-01T13:56:22.913Z,98266.31
2022-09-01T13:58:49.434Z,98290.69
2022-09-01T14:01:16.538Z,98293.50
2022-09-01T14:03:43.933Z,98290.13
2022-09-01T14:06:10.517Z,98300.69
2022-09-01T14:08:37.089Z,98286.25
2022-09-01T14:11:03.898Z,98281.81
2022-09-01T14:13:31.463Z,98277.81
2022-09-01T14:15:58.907Z,98287.81
2022-09-01T14:18:32.007Z,98287.81
2022-09-01T14:21:01.218Z,98289.34
2022-09-01T14:23:27.954Z,98279.59
2022-09-01T14:25:54.422Z,98280.28
2022-09-01T14:28:22.713Z,98285.06
2022-09-01T14:33:18.100Z,98276.06
2022-09-01T14:35:47.970Z,98273.53
2022-09-01T14:38:15.114Z,98268.91
2022-09-01T14:40:43.105Z,98259.66
2022-09-01T14:43:11.731Z,98265.50
2022-09-01T14:45:38.273Z,98259.84
2022-09-01T14:48:05.768Z,98265.88
2022-09-01T14:50:32.729Z,98255.63
2022-09-01T14:53:01.064Z,98251.00
2022-09-01T14:55:30.045Z,98251.81
2022-09-01T14:57:57.762Z,98247.19
2022-09-01T15:00:27.398Z,98248.38
2022-09-01T15:02:55.997Z,98249.16
2022-09-01T15:05:23.058Z,98248.81
2022-09-01T15:07:50.409Z,98238.78
2022-09-01T15:10:24.950Z,98241.50
2022-09-01T15:12:57.703Z,98246.94
2022-09-01T15:15:25.131Z,98245.88
2022-09-01T15:17:52.106Z,98236.41
2022-09-01T15:20:37.238Z,98236.16
2022-09-01T15:23:04.828Z,98232.59
2022-09-01T15:25:31.287Z,98230.09
2022-09-01T15:27:57.832Z,98241.69
2022-09-01T15:30:24.436Z,98237.34
2022-09-01T15:32:53.208Z,98245.22
2022-09-01T15:35:21.252Z,98236.53
2022-09-01T15:37:49.455Z,98235.53
2022-09-01T15:40:17.046Z,98237.59
2022-09-01T15:42:44.134Z,98238.19
2022-09-01T15:45:14.900Z,98237.88
2022-09-01T15:47:45.659Z,98237.75
2022-09-01T15:50:21.065Z,98221.81
2022-09-01T15:52:51.364Z,98229.81
2022-09-01T15:55:27.375Z,98226.16
2022-09-01T15:57:55.070Z,98226.97
2022-09-01T16:00:25.238Z,98229.53
2022-09-01T16:02:54.355Z,98228.19
2022-09-01T16:05:21.030Z,98224.78
2022-09-01T16:07:47.550Z,98229.63
2022-09-01T16:10:14.597Z,98227.00
2022-09-01T16:12:43.831Z,98227.78
2022-09-01T16:15:13.532Z,98222.47
2022-09-01T16:17:55.133Z,98216.66
2022-09-01T16:21:14.908Z,98229.72
2022-09-01T16:23:48.916Z,98222.25
2022-09-01T16:26:17.666Z,98217.22
2022-09-01T16:28:56.439Z,98208.06
2022-09-01T16:31:25.958Z,98214.28
2022-09-01T16:33:56.149Z,98213.28
2022-09-01T16:36:40.566Z,98205.44
2022-09-01T16:39:28.007Z,98200.97
2022-09-01T16:42:19.011Z,98201.72
2022-09-01T16:45:00.532Z,98207.09
2022-09-01T16:47:33.377Z,98211.19
2022-09-01T16:50:05.541Z,98197.13
2022-09-01T16:52:56.089Z,98194.66
2022-09-01T16:55:46.749Z,98198.88
2022-09-01T16:58:25.435Z,98196.59
2022-09-01T17:01:07.183Z,98197.03
2022-09-01T17:03:42.743Z,98192.09
2022-09-01T17:06:51.694Z,98201.56
2022-09-01T17:09:38.782Z,98199.09
2022-09-01T17:12:11.796Z,98197.78
2022-09-01T17:14:47.422Z,98202.72
2022-09-01T17:17:24.659Z,98203.38
2022-09-01T17:19:54.226Z,98203.03
2022-09-01T17:22:21.932Z,98199.63
2022-09-01T17:24:56.680Z,98193.75
2022-09-01T17:28:00.109Z,98198.03
2022-09-01T17:30:26.857Z,98201.75
2022-09-01T17:33:13.039Z,98197.03
2022-09-01T17:35:53.043Z,98193.81
2022-09-01T17:38:53.906Z,98193.81
2022-09-01T17:41:41.923Z,98202.28
2022-09-01T17:44:35.468Z,98205.69
2022-09-01T17:47:23.304Z,98213.88
2022-09-01T17:50:03.146Z,98215.56
2022-09-01T17:52:53.302Z,98213.09
2022-09-01T17:55:19.780Z,98213.53
2022-09-01T17:58:06.853Z,98215.34
2022-09-01T18:00:54.766Z,98221.50
2022-09-01T18:03:52.375Z,98219.56
2022-09-01T18:06:27.738Z,98217.16
2022-09-01T18:08:58.288Z,98219.84
2022-09-01T18:11:49.232Z,98212.75
2022-09-01T18:14:53.369Z,98217.59
2022-09-01T18:17:31.947Z,98221.25
2022-09-01T18:20:07.913Z,98223.13
2022-09-01T18:23:01.902Z,98216.91
2022-09-01T18:25:41.462Z,98225.28
2022-09-01T18:28:09.317Z,98225.09
2022-09-01T18:30:55.717Z,98231.91
2022-09-01T18:33:36.635Z,98233.91
2022-09-01T18:36:24.601Z,98237.75
2022-09-01T18:39:11.447Z,98240.41
2022-09-01T18:41:55.746Z,98238.78
2022-09-01T18:44:53.210Z,98242.34
2022-09-01T18:47:31.802Z,98238.75
2022-09-01T18:50:17.033Z,98241.97
2022-09-01T18:53:10.413Z,98242.78
2022-09-01T18:56:05.754Z,98242.88
2022-09-01T18:58:36.648Z,98239.59
2022-09-01T19:01:07.051Z,98238.44
2022-09-01T19:03:43.541Z,98230.94
2022-09-01T19:06:30.542Z,98245.25
2022-09-01T19:09:26.064Z,98239.88
2022-09-01T19:12:35.655Z,98244.56
2022-09-01T19:15:08.726Z,98241.38
2022-09-01T19:18:04.065Z,98198.78
2022-09-01T19:20:49.894Z,98249.19
2022-09-01T19:23:34.158Z,98252.47
2022-09-01T19:26:06.555Z,98259.53
2022-09-01T19:28:39.685Z,98248.16
2022-09-01T19:31:13.092Z,98252.78
2022-09-01T19:33:44.090Z,98258.81
2022-09-01T19:36:18.141Z,98259.84
2022-09-01T19:38:45.027Z,98257.19
2022-09-01T19:41:37.409Z,98268.66
2022-09-01T19:44:32.455Z,98259.50
2022-09-01T19:47:11.098Z,98267.63
2022-09-01T19:49:44.894Z,98260.56
2022-09-01T19:52:46.011Z,98266.75
2022-09-01T19:55:19.413Z,98270.28
2022-09-01T19:57:57.008Z,98259.25
2022-09-01T20:00:35.066Z,98228.53
2022-09-01T20:03:32.946Z,98264.44
2022-09-01T20:06:16.232Z,98260.66
2022-09-01T20:09:05.900Z,98259.81
2022-09-01T20:11:53.212Z,98263.88
2022-09-01T20:14:48.294Z,98269.00
2022-09-01T20:17:30.654Z,98261.44
2022-09-01T20:20:07.585Z,98229.94
2022-09-01T20:22:51.336Z,98264.22
2022-09-01T20:25:25.852Z,98263.94
2022-09-01T20:28:19.732Z,98260.13
2022-09-01T20:30:53.076Z,98254.75
2022-09-01T20:33:25.618Z,98258.03
2022-09-01T20:36:01.930Z,98251.53
2022-09-01T20:38:53.142Z,98255.84
2022-09-01T20:41:37.427Z,98261.78
2022-09-01T20:44:18.712Z,98270.25
2022-09-01T20:46:47.432Z,98259.44
2022-09-01T20:49:15.935Z,98255.38
2022-09-01T20:51:57.403Z,98260.78
2022-09-01T20:54:29.831Z,98258.09
2022-09-01T20:57:02.439Z,98250.81
2022-09-01T20:59:43.005Z,98262.16
2022-09-01T21:02:31.639Z,98256.50
2022-09-01T21:05:26.226Z,98263.50
2022-09-01T21:08:19.733Z,98248.38
2022-09-01T21:11:16.693Z,98229.00
2022-09-01T21:14:07.380Z,98261.09
2022-09-01T21:16:36.559Z,98257.03
2022-09-01T21:19:18.382Z,98254.09
2022-09-01T21:22:14.478Z,98261.09
2022-09-01T21:24:43.497Z,98258.66
2022-09-01T21:27:23.346Z,98252.75
2022-09-01T21:29:53.487Z,98264.88
2022-09-01T21:32:20.642Z,98256.50
2022-09-01T21:34:48.046Z,98259.19
2022-09-01T21:37:14.928Z,98247.88
2022-09-01T21:39:41.328Z,98249.22
2022-09-01T21:42:10.494Z,98245.72
2022-09-01T21:44:37.274Z,98245.19
2022-09-01T21:47:04.515Z,98226.03
2022-09-01T21:49:32.245Z,98240.84
2022-09-01T21:52:00.086Z,98248.69
2022-09-01T21:54:26.592Z,98254.34
2022-09-01T21:56:53.372Z,98253.78
2022-09-01T21:59:20.098Z,98241.91
2022-09-01T22:01:47.149Z,98227.34
2022-09-01T22:04:13.938Z,98244.63
2022-09-01T22:06:41.038Z,98241.63
2022-09-01T22:09:21.318Z,98243.78
2022-09-01T22:11:50.255Z,98240.25
2022-09-01T22:14:19.165Z,98233.75
2022-09-01T22:16:46.282Z,98233.19
2022-09-01T22:19:13.000Z,98215.63
2022-09-01T22:21:39.675Z,98234.47
2022-09-01T22:24:06.761Z,98230.69
2022-09-01T22:26:34.435Z,98227.69
2022-09-01T22:29:04.526Z,98220.16
2022-09-01T22:31:33.172Z,98209.91
2022-09-01T22:34:00.437Z,98227.75
2022-09-01T22:36:34.574Z,98221.25
2022-09-01T22:39:01.518Z,98230.44
2022-09-01T22:41:29.739Z,98226.63
2022-09-01T22:43:57.895Z,98228.78
2022-09-01T22:46:27.253Z,98229.81
2022-09-01T22:48:55.805Z,98230.00
2022-09-01T22:51:23.025Z,98209.94
2022-09-01T22:53:49.508Z,98235.06
2022-09-01T22:56:27.736Z,98233.09
2022-09-01T22:58:56.757Z,98234.75
2022-09-01T23:01:26.812Z,98247.00
2022-09-01T23:03:53.622Z,98237.03
2022-09-01T23:06:27.987Z,98232.28
2022-09-01T23:08:59.197Z,98236.50
2022-09-01T23:11:26.374Z,98230.78
2022-09-01T23:13:53.821Z,98220.28
2022-09-01T23:16:22.433Z,98221.31
2022-09-01T23:18:50.089Z,98225.47
2022-09-01T23:21:20.015Z,98223.69
2022-09-01T23:23:47.388Z,98223.13
2022-09-01T23:26:15.048Z,98212.53
2022-09-01T23:28:42.869Z,98220.94
2022-09-01T23:31:13.549Z,98224.44
2022-09-01T23:33:40.114Z,98225.50
2022-09-01T23:36:11.822Z,98222.25
2022-09-01T23:38:38.842Z,98228.25
2022-09-01T23:41:10.665Z,98223.38
2022-09-01T23:43:38.035Z,98216.88
2022-09-01T23:46:05.739Z,98221.13
2022-09-01T23:48:33.423Z,98218.66
2022-09-01T23:51:08.465Z,98198.75
2022-09-01T23:53:37.399Z,98213.19
2022-09-01T23:56:09.544Z,98203.19
2022-09-01T23:58:36.878Z,98208.13
